Algernon, Nebraska
Current Conditions -  °F | °C
As of 4:53 PM on Saturday 22 Nov 2014 (Local Time) from KBBW Reporting Station
Clear Clear  
Wind Chill: 55°   Ceiling: Unl
Heat Index: 55°   Visibility: 10mi
Dew Point: 29°   Wind: 8mph
Humidity: 37%   Direction: 190°S
Pressure: 29.53"   Gusts: NA
Location:  41.1632°N, 99.3112°W
Report Text: KBBW 222253Z AUTO 19007KT 10SM CLR 13/M02 A2953 RMK AO2 SLP006 T01281017 PWINO $
Loading
Personal Weather Stations






























Interactive Weather Map New forecast layout! Learn more

10-Day Weather Forecast

Advertisements
Track Severe Weather on mobile